createdAt,value
2023-05-14T00:01:40.692Z,8.70
2023-05-14T00:04:08.143Z,8.05
2023-05-14T00:06:35.503Z,8.37
2023-05-14T00:09:02.976Z,8.50
2023-05-14T00:11:30.315Z,10.43
2023-05-14T00:13:57.642Z,9.43
2023-05-14T00:16:24.955Z,8.88
2023-05-14T00:18:52.441Z,10.13
2023-05-14T00:21:19.733Z,8.90
2023-05-14T00:23:47.044Z,8.98
2023-05-14T00:26:14.382Z,8.73
2023-05-14T00:28:44.483Z,8.63
2023-05-14T00:31:11.828Z,10.20
2023-05-14T00:33:39.142Z,8.82
2023-05-14T00:36:06.751Z,8.57
2023-05-14T00:38:34.818Z,8.43
2023-05-14T00:41:02.198Z,9.77
2023-05-14T00:43:29.564Z,8.90
2023-05-14T00:45:56.878Z,8.02
2023-05-14T00:48:24.618Z,8.38
2023-05-14T00:50:52.943Z,9.13
2023-05-14T00:53:20.492Z,8.95
2023-05-14T00:55:48.479Z,9.73
2023-05-14T00:58:15.795Z,9.23
2023-05-14T01:00:43.322Z,8.77
2023-05-14T01:03:10.917Z,8.88
2023-05-14T01:05:47.544Z,8.82
2023-05-14T01:08:38.096Z,8.17
2023-05-14T01:11:10.864Z,8.55
2023-05-14T01:13:49.583Z,8.90
2023-05-14T01:16:19.070Z,8.35
2023-05-14T01:18:47.598Z,10.57
2023-05-14T01:21:41.250Z,9.30
2023-05-14T01:24:08.913Z,8.90
2023-05-14T01:26:36.618Z,9.40
2023-05-14T01:29:08.952Z,9.65
2023-05-14T01:31:37.492Z,7.93
2023-05-14T01:34:05.694Z,9.10
2023-05-14T01:36:33.558Z,8.85
2023-05-14T01:39:01.686Z,9.05
2023-05-14T01:41:30.524Z,8.85
2023-05-14T01:43:58.015Z,8.45
2023-05-14T01:46:25.572Z,8.20
2023-05-14T01:48:52.869Z,8.57
2023-05-14T01:51:20.227Z,8.00
2023-05-14T01:53:47.563Z,8.48
2023-05-14T01:56:14.795Z,8.65
2023-05-14T01:58:42.147Z,8.77
2023-05-14T02:01:09.543Z,8.23
2023-05-14T02:03:36.987Z,8.80
2023-05-14T02:06:04.449Z,9.65
2023-05-14T02:08:31.807Z,9.60
2023-05-14T02:10:59.079Z,9.57
2023-05-14T02:13:26.957Z,8.45
2023-05-14T02:15:54.267Z,9.07
2023-05-14T02:18:21.775Z,8.45
2023-05-14T02:20:49.270Z,8.23
2023-05-14T02:23:17.781Z,7.83
2023-05-14T02:25:45.389Z,9.57
2023-05-14T02:28:12.734Z,8.63
2023-05-14T02:30:40.147Z,8.95
2023-05-14T02:33:07.497Z,8.82
2023-05-14T02:35:34.843Z,8.77
2023-05-14T02:38:02.121Z,8.43
2023-05-14T02:40:29.402Z,8.82
2023-05-14T02:42:57.187Z,8.30
2023-05-14T02:45:24.593Z,7.60
2023-05-14T02:47:51.947Z,9.43
2023-05-14T02:50:19.293Z,8.50
2023-05-14T02:52:46.599Z,7.70
2023-05-14T02:55:13.937Z,8.30
2023-05-14T02:57:41.269Z,9.15
2023-05-14T03:00:09.196Z,8.40
2023-05-14T03:02:37.031Z,8.70
2023-05-14T03:05:04.888Z,8.52
2023-05-14T03:07:32.189Z,9.30
2023-05-14T03:10:00.446Z,8.70
2023-05-14T03:12:27.874Z,8.00
2023-05-14T03:14:55.197Z,8.48
2023-05-14T03:17:23.276Z,8.73
2023-05-14T03:19:50.991Z,7.95
2023-05-14T03:22:18.281Z,9.18
2023-05-14T03:24:45.599Z,8.53
2023-05-14T03:27:12.867Z,9.00
2023-05-14T03:29:40.411Z,9.27
2023-05-14T03:32:07.962Z,8.93
2023-05-14T03:34:35.250Z,8.95
2023-05-14T03:37:02.681Z,8.03
2023-05-14T03:39:29.960Z,9.15
2023-05-14T03:41:58.933Z,9.05
2023-05-14T03:44:26.491Z,9.93
2023-05-14T03:46:53.886Z,8.98
2023-05-14T03:49:21.295Z,9.67
2023-05-14T03:51:48.581Z,8.45
2023-05-14T03:54:15.925Z,9.45
2023-05-14T03:56:44.677Z,9.38
2023-05-14T03:59:11.980Z,8.48
2023-05-14T04:01:39.213Z,8.80
2023-05-14T04:04:06.737Z,9.68
2023-05-14T04:06:34.440Z,8.80
2023-05-14T04:09:03.413Z,8.90
2023-05-14T04:11:30.727Z,8.50
2023-05-14T04:13:59.918Z,9.37
2023-05-14T04:16:27.299Z,9.07
2023-05-14T04:18:54.811Z,8.60
2023-05-14T04:21:22.169Z,8.85
2023-05-14T04:23:50.699Z,9.52
2023-05-14T04:26:18.489Z,8.70
2023-05-14T04:28:45.853Z,8.57
2023-05-14T04:31:13.239Z,9.02
2023-05-14T04:33:40.647Z,9.27
2023-05-14T04:36:08.333Z,8.55
2023-05-14T04:38:35.652Z,9.37
2023-05-14T04:41:02.989Z,8.82
2023-05-14T04:43:30.269Z,9.82
2023-05-14T04:45:57.731Z,8.52
2023-05-14T04:48:25.043Z,7.85
2023-05-14T04:50:52.405Z,8.30
2023-05-14T04:53:19.722Z,7.90
2023-05-14T04:55:46.955Z,8.10
2023-05-14T04:58:14.201Z,8.55
2023-05-14T05:00:41.939Z,8.18
2023-05-14T05:03:09.326Z,8.57
2023-05-14T05:05:36.858Z,8.77
2023-05-14T05:08:04.204Z,7.80
2023-05-14T05:10:31.530Z,8.55
2023-05-14T05:12:58.827Z,7.70
2023-05-14T05:15:26.656Z,8.20
2023-05-14T05:17:54.397Z,8.30
2023-05-14T05:20:21.896Z,7.80
2023-05-14T05:22:49.390Z,7.68
2023-05-14T05:25:16.669Z,7.70
2023-05-14T05:27:43.963Z,8.00
2023-05-14T05:30:11.568Z,7.63
2023-05-14T05:32:39.002Z,7.72
2023-05-14T05:35:06.589Z,8.10
2023-05-14T05:37:33.894Z,8.10
2023-05-14T05:40:01.264Z,7.57
2023-05-14T05:42:28.685Z,8.68
2023-05-14T05:44:56.365Z,7.30
2023-05-14T05:47:23.767Z,8.52
2023-05-14T05:49:51.075Z,8.75
2023-05-14T05:52:18.430Z,8.03
2023-05-14T05:54:45.749Z,8.40
2023-05-14T05:57:13.113Z,7.22
2023-05-14T05:59:40.390Z,7.10
2023-05-14T06:02:07.773Z,7.47
2023-05-14T06:04:35.162Z,8.47
2023-05-14T06:07:02.575Z,8.05
2023-05-14T06:09:29.930Z,6.68
2023-05-14T06:11:57.223Z,6.68
2023-05-14T06:14:24.489Z,6.28
2023-05-14T06:16:51.815Z,7.53
2023-05-14T06:19:19.455Z,6.85
2023-05-14T06:21:46.797Z,6.68
2023-05-14T06:24:14.152Z,6.97
2023-05-14T06:26:41.451Z,6.78
2023-05-14T06:29:08.734Z,7.90
2023-05-14T06:31:36.123Z,8.18
2023-05-14T06:34:03.696Z,8.52
2023-05-14T06:36:31.030Z,7.78
2023-05-14T06:38:58.411Z,7.35
2023-05-14T06:41:26.180Z,7.87
2023-05-14T06:43:53.481Z,8.57
2023-05-14T06:46:20.809Z,7.57
2023-05-14T06:48:48.211Z,8.65
2023-05-14T06:51:15.652Z,6.93
2023-05-14T06:53:42.937Z,6.67
2023-05-14T06:56:10.330Z,8.18
2023-05-14T06:58:37.684Z,7.65
2023-05-14T07:01:05.110Z,7.25
2023-05-14T07:03:32.414Z,6.70
2023-05-14T07:05:59.795Z,7.50
2023-05-14T07:08:27.077Z,7.15
2023-05-14T07:10:54.406Z,6.28
2023-05-14T07:13:21.806Z,7.00
2023-05-14T07:15:49.072Z,7.15
2023-05-14T07:18:16.406Z,7.47
2023-05-14T07:20:43.733Z,6.82
2023-05-14T07:23:11.159Z,6.82
2023-05-14T07:25:38.527Z,6.18
2023-05-14T07:28:05.881Z,7.43
2023-05-14T07:30:33.179Z,5.53
2023-05-14T07:33:00.575Z,6.28
2023-05-14T07:35:27.957Z,6.32
2023-05-14T07:37:55.283Z,6.88
2023-05-14T07:40:22.913Z,6.72
2023-05-14T07:42:50.469Z,6.07
2023-05-14T07:45:17.840Z,5.72
2023-05-14T07:47:45.263Z,6.05
2023-05-14T07:50:12.992Z,6.40
2023-05-14T07:52:40.612Z,5.82
2023-05-14T07:55:08.477Z,6.00
2023-05-14T07:57:35.751Z,5.38
2023-05-14T08:00:03.083Z,5.57
2023-05-14T08:02:39.885Z,5.70
2023-05-14T08:05:07.589Z,5.15
2023-05-14T08:07:34.846Z,5.43
2023-05-14T08:10:02.378Z,5.85
2023-05-14T08:12:30.345Z,5.32
2023-05-14T08:14:57.659Z,6.38
2023-05-14T08:17:25.047Z,5.57
2023-05-14T08:19:52.443Z,4.87
2023-05-14T08:22:19.719Z,4.40
2023-05-14T08:24:47.012Z,4.35
2023-05-14T08:27:14.446Z,3.70
2023-05-14T08:29:41.757Z,3.88
2023-05-14T08:32:21.972Z,4.03
2023-05-14T08:34:50.817Z,3.40
2023-05-14T08:37:18.651Z,3.42
2023-05-14T08:39:45.924Z,4.30
2023-05-14T08:42:13.952Z,3.70
2023-05-14T08:44:48.968Z,3.40
2023-05-14T08:47:16.862Z,4.10
2023-05-14T08:49:47.125Z,4.25
2023-05-14T08:52:14.555Z,3.83
2023-05-14T08:54:41.893Z,4.30
2023-05-14T08:57:10.639Z,3.90
2023-05-14T08:59:38.352Z,3.75
2023-05-14T09:02:06.695Z,3.90
2023-05-14T09:04:34.594Z,3.78
2023-05-14T09:07:04.127Z,3.60
2023-05-14T09:09:31.753Z,3.67
2023-05-14T09:11:59.334Z,4.40
2023-05-14T09:14:26.822Z,3.65
2023-05-14T09:16:54.847Z,3.85
2023-05-14T09:19:22.482Z,3.97
2023-05-14T09:21:50.354Z,4.00
2023-05-14T09:24:22.453Z,3.55
2023-05-14T09:26:56.551Z,3.97
2023-05-14T09:29:27.731Z,3.80
2023-05-14T09:31:55.838Z,3.78
2023-05-14T09:34:30.735Z,3.90
2023-05-14T09:36:59.214Z,3.20
2023-05-14T09:39:26.903Z,3.72
2023-05-14T09:41:54.967Z,3.83
2023-05-14T09:44:22.670Z,2.92
2023-05-14T09:46:50.207Z,3.63
2023-05-14T09:49:17.674Z,3.42
2023-05-14T09:51:45.366Z,3.38
2023-05-14T09:54:12.811Z,3.70
2023-05-14T09:56:40.316Z,3.15
2023-05-14T09:59:07.620Z,3.60
2023-05-14T10:01:35.227Z,3.80
2023-05-14T10:04:04.572Z,3.80
2023-05-14T10:06:34.012Z,3.65
2023-05-14T10:09:04.024Z,3.55
2023-05-14T10:11:35.678Z,3.67
2023-05-14T10:14:17.924Z,3.20
2023-05-14T10:16:50.767Z,3.47
2023-05-14T10:19:19.116Z,3.92
2023-05-14T10:21:49.273Z,3.05
2023-05-14T10:24:16.828Z,2.70
2023-05-14T10:26:44.193Z,3.95
2023-05-14T10:29:11.928Z,3.50
2023-05-14T10:31:45.614Z,3.40
2023-05-14T10:34:32.698Z,3.22
2023-05-14T10:37:00.935Z,3.67
2023-05-14T10:39:41.413Z,3.38
2023-05-14T10:42:19.511Z,3.63
2023-05-14T10:44:51.595Z,3.83
2023-05-14T10:47:19.228Z,3.22
2023-05-14T10:49:50.642Z,6.37
2023-05-14T10:52:19.631Z,3.67
2023-05-14T10:54:51.690Z,3.30
2023-05-14T10:57:19.794Z,3.30
2023-05-14T10:59:53.222Z,3.05
2023-05-14T11:02:23.539Z,3.40
2023-05-14T11:04:59.149Z,3.15
2023-05-14T11:07:35.748Z,3.45
2023-05-14T11:10:03.460Z,3.50
2023-05-14T11:12:30.879Z,3.30
2023-05-14T11:14:59.264Z,3.10
2023-05-14T11:17:27.488Z,3.60
2023-05-14T11:19:55.446Z,3.15
2023-05-14T11:22:23.211Z,3.08
2023-05-14T11:24:50.588Z,2.80
2023-05-14T11:27:18.633Z,3.20
2023-05-14T11:29:46.623Z,2.70
2023-05-14T11:32:14.546Z,3.00
2023-05-14T11:34:44.891Z,2.90
2023-05-14T11:37:13.001Z,2.90
2023-05-14T11:39:40.881Z,3.10
2023-05-14T11:42:12.342Z,2.70
2023-05-14T11:44:39.999Z,3.17
2023-05-14T11:47:07.549Z,2.97
2023-05-14T11:49:37.461Z,2.50
2023-05-14T11:52:10.134Z,2.43
2023-05-14T11:54:37.488Z,3.58
2023-05-14T11:57:23.088Z,3.03
2023-05-14T11:59:57.203Z,3.13
2023-05-14T12:02:29.362Z,3.78
2023-05-14T12:04:56.909Z,3.60
2023-05-14T12:07:24.274Z,3.30
2023-05-14T12:09:51.709Z,2.90
2023-05-14T12:12:20.040Z,3.50
2023-05-14T12:14:47.432Z,3.08
2023-05-14T12:17:19.050Z,2.60
2023-05-14T12:19:47.666Z,3.40
2023-05-14T12:22:16.182Z,3.20
2023-05-14T12:24:56.651Z,3.05
2023-05-14T12:27:27.774Z,3.08
2023-05-14T12:30:16.819Z,2.80
2023-05-14T12:32:51.483Z,3.42
2023-05-14T12:35:19.333Z,3.15
2023-05-14T12:37:46.764Z,3.40
2023-05-14T12:40:14.339Z,2.97
2023-05-14T12:42:41.698Z,3.03
2023-05-14T12:45:09.115Z,3.05
2023-05-14T12:47:37.046Z,7.50
2023-05-14T12:50:05.177Z,7.72
2023-05-14T12:52:38.828Z,3.28
2023-05-14T12:55:07.768Z,3.70
2023-05-14T12:57:35.633Z,3.53
2023-05-14T13:00:07.066Z,3.13
2023-05-14T13:02:42.703Z,3.40
2023-05-14T13:05:11.374Z,2.90
2023-05-14T13:07:39.139Z,3.00
2023-05-14T13:10:07.033Z,3.28
2023-05-14T13:12:34.550Z,2.70
2023-05-14T13:15:01.937Z,3.00
2023-05-14T13:17:29.332Z,2.78
2023-05-14T13:19:56.689Z,2.73
2023-05-14T13:22:23.969Z,2.60
2023-05-14T13:24:51.279Z,3.13
2023-05-14T13:27:18.670Z,2.75
2023-05-14T13:29:45.972Z,3.15
2023-05-14T13:32:13.255Z,3.13
2023-05-14T13:34:40.615Z,2.63
2023-05-14T13:37:07.894Z,3.35
2023-05-14T13:39:35.343Z,3.05
2023-05-14T13:42:02.842Z,2.92
2023-05-14T13:44:30.384Z,2.87
2023-05-14T13:46:57.750Z,3.08
2023-05-14T13:49:25.067Z,2.67
2023-05-14T13:51:52.384Z,3.05
2023-05-14T13:54:19.708Z,3.50
2023-05-14T13:56:46.998Z,3.30
2023-05-14T13:59:15.118Z,2.95
2023-05-14T14:01:45.206Z,3.13
2023-05-14T14:04:12.656Z,2.88
2023-05-14T14:06:39.948Z,3.33
2023-05-14T14:09:07.206Z,5.47
2023-05-14T14:11:34.558Z,3.30
2023-05-14T14:14:01.776Z,3.30
2023-05-14T14:16:29.279Z,2.83
2023-05-14T14:18:57.424Z,2.95
2023-05-14T14:21:24.944Z,2.80
2023-05-14T14:23:52.361Z,2.60
2023-05-14T14:26:19.792Z,3.78
2023-05-14T14:28:47.184Z,4.53
2023-05-14T14:31:14.565Z,4.75
2023-05-14T14:33:41.926Z,3.03
2023-05-14T14:36:09.273Z,2.88
2023-05-14T14:38:36.626Z,2.83
2023-05-14T14:41:04.041Z,3.25
2023-05-14T14:43:31.700Z,2.95
2023-05-14T14:45:59.074Z,2.80
2023-05-14T14:48:41.264Z,2.83
2023-05-14T14:51:09.234Z,4.55
2023-05-14T14:53:37.313Z,4.00
2023-05-14T14:56:05.002Z,3.53
2023-05-14T14:58:32.675Z,3.23
2023-05-14T15:01:01.461Z,3.22
2023-05-14T15:03:29.187Z,3.08
2023-05-14T15:05:56.667Z,2.70
2023-05-14T15:08:26.703Z,3.03
2023-05-14T15:10:54.680Z,3.40
2023-05-14T15:13:22.035Z,3.30
2023-05-14T15:15:51.073Z,3.55
2023-05-14T15:18:18.536Z,2.95
2023-05-14T15:20:45.885Z,3.20
2023-05-14T15:23:13.219Z,2.90
2023-05-14T15:25:40.675Z,2.60
2023-05-14T15:28:08.005Z,2.78
2023-05-14T15:30:35.522Z,3.75
2023-05-14T15:33:03.255Z,3.47
2023-05-14T15:35:30.673Z,3.17
2023-05-14T15:37:58.019Z,3.65
2023-05-14T15:40:25.484Z,3.35
2023-05-14T15:42:52.934Z,3.30
2023-05-14T15:45:20.373Z,7.03
2023-05-14T15:47:47.782Z,4.83
2023-05-14T15:50:15.117Z,5.20
2023-05-14T15:52:42.608Z,4.53
2023-05-14T15:55:10.332Z,5.18
2023-05-14T15:57:37.758Z,4.25
2023-05-14T16:00:11.058Z,3.50
2023-05-14T16:02:39.077Z,3.97
2023-05-14T16:05:07.588Z,3.25
2023-05-14T16:07:34.997Z,6.20
2023-05-14T16:10:02.396Z,5.45
2023-05-14T16:12:29.795Z,4.70
2023-05-14T16:14:57.713Z,4.97
2023-05-14T16:17:25.235Z,4.43
2023-05-14T16:19:55.342Z,4.35
2023-05-14T16:22:23.558Z,4.00
2023-05-14T16:24:51.060Z,4.50
2023-05-14T16:27:21.497Z,4.32
2023-05-14T16:29:48.837Z,4.10
2023-05-14T16:32:16.326Z,5.18
2023-05-14T16:34:49.855Z,4.93
2023-05-14T16:37:19.865Z,4.43
2023-05-14T16:39:47.292Z,4.97
2023-05-14T16:42:14.661Z,4.70
2023-05-14T16:44:41.996Z,4.50
2023-05-14T16:47:09.356Z,4.30
2023-05-14T16:49:36.643Z,4.60
2023-05-14T16:52:04.009Z,5.15
2023-05-14T16:54:31.449Z,4.70
2023-05-14T16:56:58.756Z,4.88
2023-05-14T16:59:26.046Z,5.85
2023-05-14T17:01:53.508Z,4.43
2023-05-14T17:04:21.260Z,5.32
2023-05-14T17:06:48.649Z,5.43
2023-05-14T17:09:16.748Z,6.10
2023-05-14T17:11:44.139Z,5.80
2023-05-14T17:14:11.505Z,5.20
2023-05-14T17:16:40.571Z,5.22
2023-05-14T17:19:07.983Z,4.85
2023-05-14T17:21:35.328Z,4.88
2023-05-14T17:24:02.631Z,5.65
2023-05-14T17:26:30.130Z,6.33
2023-05-14T17:28:57.456Z,4.65
2023-05-14T17:31:24.848Z,4.40
2023-05-14T17:33:52.219Z,5.38
2023-05-14T17:36:19.499Z,4.63
2023-05-14T17:38:46.872Z,4.63
2023-05-14T17:41:14.130Z,5.80
2023-05-14T17:43:41.485Z,4.80
2023-05-14T17:46:08.753Z,6.15
2023-05-14T17:48:36.151Z,5.15
2023-05-14T17:51:03.441Z,4.87
2023-05-14T17:53:30.724Z,6.10
2023-05-14T17:55:58.071Z,4.72
2023-05-14T17:58:25.409Z,5.15
2023-05-14T18:00:52.995Z,5.38
2023-05-14T18:03:20.667Z,5.83
2023-05-14T18:05:48.124Z,5.35
2023-05-14T18:08:15.476Z,5.70
2023-05-14T18:10:42.848Z,4.75
2023-05-14T18:13:10.100Z,5.25
2023-05-14T18:15:37.830Z,5.10
2023-05-14T18:18:05.399Z,4.50
2023-05-14T18:20:34.155Z,5.20
2023-05-14T18:23:03.153Z,5.10
2023-05-14T18:25:30.591Z,5.13
2023-05-14T18:27:57.959Z,6.63
2023-05-14T18:30:25.285Z,8.02
2023-05-14T18:32:52.663Z,5.13
2023-05-14T18:35:20.073Z,8.57
2023-05-14T18:37:47.436Z,7.45
2023-05-14T18:40:17.750Z,5.93
2023-05-14T18:42:45.895Z,5.10
2023-05-14T18:45:13.264Z,4.40
2023-05-14T18:47:40.992Z,5.03
2023-05-14T18:50:08.707Z,4.50
2023-05-14T18:52:36.130Z,3.80
2023-05-14T18:55:03.412Z,4.57
2023-05-14T18:57:32.713Z,4.50
2023-05-14T19:00:04.057Z,4.32
2023-05-14T19:02:31.599Z,4.72
2023-05-14T19:04:59.013Z,4.50
2023-05-14T19:07:27.911Z,4.28
2023-05-14T19:09:55.412Z,4.38
2023-05-14T19:12:22.678Z,3.85
2023-05-14T19:14:49.920Z,4.28
2023-05-14T19:17:19.860Z,3.90
2023-05-14T19:19:47.887Z,3.92
2023-05-14T19:22:15.223Z,5.40
2023-05-14T19:24:42.558Z,5.22
2023-05-14T19:27:10.103Z,16.55
2023-05-14T19:29:37.727Z,9.50
2023-05-14T19:32:05.396Z,9.07
2023-05-14T19:34:32.807Z,8.27
2023-05-14T19:37:00.582Z,5.45
2023-05-14T19:39:27.936Z,5.32
2023-05-14T19:41:55.453Z,4.33
2023-05-14T19:44:22.746Z,4.78
2023-05-14T19:46:50.088Z,4.28
2023-05-14T19:49:17.397Z,5.50
2023-05-14T19:51:44.767Z,4.85
2023-05-14T19:54:12.085Z,4.70
2023-05-14T19:56:39.499Z,3.80
2023-05-14T19:59:06.949Z,4.22
2023-05-14T20:01:34.885Z,4.43
2023-05-14T20:04:02.425Z,4.20
2023-05-14T20:06:30.208Z,5.27
2023-05-14T20:08:57.500Z,5.18
2023-05-14T20:11:24.905Z,5.00
2023-05-14T20:13:52.235Z,5.25
2023-05-14T20:16:19.798Z,4.90
2023-05-14T20:18:47.295Z,4.63
2023-05-14T20:21:14.820Z,4.65
2023-05-14T20:23:42.241Z,4.90
2023-05-14T20:26:09.495Z,5.03
2023-05-14T20:28:36.866Z,4.85
2023-05-14T20:31:04.297Z,4.23
2023-05-14T20:33:31.817Z,4.68
2023-05-14T20:35:59.315Z,4.50
2023-05-14T20:38:29.374Z,4.25
2023-05-14T20:40:56.818Z,5.60
2023-05-14T20:43:24.328Z,4.73
2023-05-14T20:45:51.600Z,4.00
2023-05-14T20:48:21.221Z,4.43
2023-05-14T20:50:48.565Z,4.07
2023-05-14T20:53:15.820Z,4.75
2023-05-14T20:55:44.777Z,4.90
2023-05-14T20:58:12.160Z,4.38
2023-05-14T21:00:39.557Z,4.28
2023-05-14T21:03:07.144Z,4.78
2023-05-14T21:05:34.915Z,4.35
2023-05-14T21:08:02.293Z,5.03
2023-05-14T21:10:29.666Z,5.30
2023-05-14T21:12:57.064Z,4.88
2023-05-14T21:15:24.559Z,5.50
2023-05-14T21:17:52.105Z,5.18
2023-05-14T21:20:19.493Z,4.70
2023-05-14T21:22:46.812Z,5.32
2023-05-14T21:25:14.218Z,4.95
2023-05-14T21:27:41.588Z,6.07
2023-05-14T21:30:09.393Z,6.07
2023-05-14T21:32:36.859Z,5.50
2023-05-14T21:35:05.367Z,5.82
2023-05-14T21:37:32.828Z,6.43
2023-05-14T21:40:00.241Z,5.90
2023-05-14T21:42:27.646Z,5.35
2023-05-14T21:44:55.060Z,6.00
2023-05-14T21:47:22.462Z,6.20
2023-05-14T21:49:49.872Z,5.95
2023-05-14T21:52:17.313Z,6.05
2023-05-14T21:54:44.750Z,6.40
2023-05-14T21:57:12.180Z,6.30
2023-05-14T21:59:39.560Z,6.45
2023-05-14T22:02:07.869Z,6.20
2023-05-14T22:04:35.859Z,6.68
2023-05-14T22:07:03.404Z,6.43
2023-05-14T22:09:30.979Z,5.77
2023-05-14T22:11:58.739Z,6.80
2023-05-14T22:14:27.428Z,7.25
2023-05-14T22:16:55.027Z,6.75
2023-05-14T22:19:22.643Z,7.38
2023-05-14T22:21:50.101Z,7.13
2023-05-14T22:24:17.631Z,7.50
2023-05-14T22:26:45.226Z,7.85
2023-05-14T22:29:12.760Z,6.63
2023-05-14T22:31:40.512Z,6.72
2023-05-14T22:34:08.102Z,7.03
2023-05-14T22:36:35.541Z,6.03
2023-05-14T22:39:02.903Z,7.45
2023-05-14T22:41:30.759Z,7.22
2023-05-14T22:43:58.147Z,7.65
2023-05-14T22:46:25.489Z,7.37
2023-05-14T22:48:52.916Z,7.78
2023-05-14T22:51:20.260Z,8.20
2023-05-14T22:53:47.629Z,8.80
2023-05-14T22:56:14.987Z,8.25
2023-05-14T22:58:42.288Z,8.47
2023-05-14T23:01:09.672Z,8.70
2023-05-14T23:03:36.963Z,9.02
2023-05-14T23:06:04.451Z,8.55
2023-05-14T23:08:31.770Z,9.75
2023-05-14T23:10:59.167Z,10.43
2023-05-14T23:13:26.418Z,9.68
2023-05-14T23:15:53.863Z,9.48
2023-05-14T23:18:21.339Z,11.50
2023-05-14T23:20:48.939Z,9.32
2023-05-14T23:23:16.464Z,11.07
2023-05-14T23:25:44.072Z,10.80
2023-05-14T23:28:11.567Z,10.38
2023-05-14T23:30:38.935Z,9.93
2023-05-14T23:33:07.033Z,11.27
2023-05-14T23:35:34.543Z,11.67
2023-05-14T23:38:02.062Z,13.45
2023-05-14T23:40:29.370Z,13.52
2023-05-14T23:42:59.349Z,15.35
2023-05-14T23:45:30.043Z,15.15
2023-05-14T23:47:59.205Z,14.73
2023-05-14T23:50:26.647Z,14.65
2023-05-14T23:52:54.561Z,14.27
2023-05-14T23:55:22.321Z,15.95
2023-05-14T23:57:50.249Z,16.80
